Time;durP1;ratioP1;P1;durP2;ratioP2;P2;SDS_P1;SDS_P2;PMS_P1;PMS_P2;Temp;Humidity;BMP_temperature;BMP_pressure;BME280_temperature;BME280_humidity;BME280_pressure;Samples;Min_cycle;Max_cycle;Signal;HPM_P1;HPM_P2
2022/12/16 00:02:18;;;;;;;38.85;27.85;;;;;;;-1.89;100.00;100885.66;5143059;29;20103;-73
2022/12/16 00:04:49;;;;;;;39.75;28.40;;;;;;;-1.82;100.00;100893.13;5141422;29;20027;-72
2022/12/16 00:07:21;;;;;;;40.00;29.38;;;;;;;-1.74;100.00;100895.44;5139584;29;20057;-71
2022/12/16 00:09:52;;;;;;;42.47;28.77;;;;;;;-1.71;100.00;100896.13;5140903;28;20033;-72
2022/12/16 00:12:23;;;;;;;36.30;27.60;;;;;;;-1.65;100.00;100891.72;5150395;28;20023;-72
2022/12/16 00:14:55;;;;;;;43.42;27.98;;;;;;;-1.68;100.00;100884.09;5147944;29;20038;-72
2022/12/16 00:17:26;;;;;;;36.42;26.65;;;;;;;-1.58;100.00;100893.19;5146140;29;20317;-73
2022/12/16 00:19:57;;;;;;;38.10;27.60;;;;;;;-1.58;100.00;100891.44;5149062;28;20030;-72
2022/12/16 00:22:29;;;;;;;36.42;27.05;;;;;;;-1.51;100.00;100889.53;5149992;28;20046;-73
2022/12/16 00:25:00;;;;;;;38.10;26.77;;;;;;;-1.44;100.00;100885.81;5146863;29;20030;-72
2022/12/16 00:27:31;;;;;;;40.78;27.00;;;;;;;-1.40;100.00;100881.41;5152971;29;20094;-71
2022/12/16 00:30:03;;;;;;;36.88;27.13;;;;;;;-1.42;100.00;100878.91;5144240;29;20095;-72
2022/12/16 00:32:34;;;;;;;39.88;27.60;;;;;;;-1.33;100.00;100885.44;5146579;29;20042;-72
2022/12/16 00:35:06;;;;;;;39.35;26.90;;;;;;;-1.30;100.00;100891.31;5148665;29;20069;-72
2022/12/16 00:37:37;;;;;;;39.65;26.92;;;;;;;-1.28;100.00;100881.00;5145002;28;20053;-73
2022/12/16 00:40:09;;;;;;;37.58;26.92;;;;;;;-1.28;100.00;100876.72;5150973;29;20035;-73
2022/12/16 00:42:40;;;;;;;42.55;27.20;;;;;;;-1.22;100.00;100884.19;5143944;29;20036;-72
2022/12/16 00:45:11;;;;;;;36.72;26.73;;;;;;;-1.19;100.00;100884.97;5147841;29;20035;-72
2022/12/16 00:47:43;;;;;;;41.83;27.40;;;;;;;-1.13;100.00;100889.91;5146109;28;20032;-72
2022/12/16 00:50:14;;;;;;;36.38;26.05;;;;;;;-1.17;100.00;100883.22;5147678;29;20111;-72
2022/12/16 00:52:46;;;;;;;36.65;26.35;;;;;;;-1.09;100.00;100886.34;5150779;29;20038;-72
2022/12/16 00:55:18;;;;;;;38.22;26.17;;;;;;;-1.10;100.00;100890.66;5147689;29;20038;-72
2022/12/16 00:57:50;;;;;;;37.85;26.60;;;;;;;-1.04;100.00;100894.72;5150971;29;20028;-72
2022/12/16 01:00:22;;;;;;;37.03;27.23;;;;;;;-1.13;100.00;100884.78;5152809;29;20178;-72
2022/12/16 01:02:53;;;;;;;36.40;26.50;;;;;;;-1.06;100.00;100892.22;5147350;28;20029;-72
2022/12/16 01:05:28;;;;;;;36.92;25.55;;;;;;;-1.07;100.00;100889.69;5151518;28;20031;-72
2022/12/16 01:07:59;;;;;;;34.53;25.65;;;;;;;-1.04;100.00;100898.13;5153698;29;20026;-73
2022/12/16 01:10:30;;;;;;;37.30;25.55;;;;;;;-0.96;100.00;100900.41;5145792;29;20386;-72
2022/12/16 01:13:01;;;;;;;36.35;26.27;;;;;;;-0.95;100.00;100903.81;5147753;29;20058;-72
2022/12/16 01:15:33;;;;;;;36.40;25.50;;;;;;;-0.92;100.00;100908.88;5151788;28;20424;-73
2022/12/16 01:18:04;;;;;;;34.15;25.33;;;;;;;-0.92;100.00;100914.00;5143317;29;20544;-72
2022/12/16 01:20:37;;;;;;;35.33;26.00;;;;;;;-0.87;100.00;100904.38;5144701;29;20037;-73
2022/12/16 01:23:09;;;;;;;35.90;25.40;;;;;;;-0.83;100.00;100922.25;5145412;28;20054;-72
2022/12/16 01:25:40;;;;;;;33.92;24.65;;;;;;;-0.83;100.00;100923.97;5145366;29;20074;-72
2022/12/16 01:28:11;;;;;;;35.58;25.60;;;;;;;-0.78;100.00;100916.94;5142804;29;20090;-72
2022/12/16 01:30:42;;;;;;;33.10;25.33;;;;;;;-0.74;100.00;100932.19;5140152;29;20051;-73
2022/12/16 01:33:14;;;;;;;34.50;25.20;;;;;;;-0.69;100.00;100931.19;5147528;29;20066;-72
2022/12/16 01:35:46;;;;;;;35.63;25.90;;;;;;;-0.72;100.00;100926.97;5144518;29;20027;-73
2022/12/16 01:38:17;;;;;;;34.22;24.80;;;;;;;-0.70;100.00;100927.78;5141163;29;20119;-72
2022/12/16 01:40:48;;;;;;;32.97;24.40;;;;;;;-0.66;100.00;100931.06;5141725;29;20019;-72
2022/12/16 01:43:24;;;;;;;33.00;25.05;;;;;;;-0.58;100.00;100947.06;5148610;29;20027;-72
2022/12/16 01:46:01;;;;;;;33.90;24.30;;;;;;;-0.60;100.00;100946.28;5141175;29;20028;-72
2022/12/16 01:48:56;;;;;;;35.40;24.75;;;;;;;-0.44;100.00;100954.28;5144379;29;20023;-73
2022/12/16 01:51:33;;;;;;;35.20;26.20;;;;;;;-0.57;100.00;100954.75;5123164;29;20044;-74
2022/12/16 01:54:19;;;;;;;35.72;26.42;;;;;;;-0.61;100.00;100962.59;5146433;29;20028;-72
2022/12/16 01:57:18;;;;;;;34.47;24.63;;;;;;;-0.57;100.00;100941.00;5139707;29;20027;-72
2022/12/16 01:59:52;;;;;;;35.25;26.63;;;;;;;-0.52;100.00;100952.00;5142056;29;20031;-73
2022/12/16 02:02:24;;;;;;;36.65;25.40;;;;;;;-0.57;100.00;100959.88;5145021;29;20170;-72
2022/12/16 02:07:58;;;;;;;32.20;25.52;;;;;;;-0.40;100.00;100963.56;5140738;29;20043;-72
2022/12/16 02:10:41;;;;;;;37.50;24.52;;;;;;;-0.46;100.00;100954.31;5142744;29;20441;-73
2022/12/16 02:13:22;;;;;;;32.58;24.35;;;;;;;-0.49;100.00;100975.03;5144041;29;20054;-72
2022/12/16 02:16:04;;;;;;;34.42;25.30;;;;;;;-0.44;100.00;100962.84;5138783;29;20027;-72
2022/12/16 02:19:05;;;;;;;34.95;26.02;;;;;;;-0.41;100.00;100964.47;5146864;29;20027;-72
2022/12/16 02:21:46;;;;;;;33.22;25.60;;;;;;;-0.37;100.00;100979.72;5145888;29;20031;-72
2022/12/16 02:24:34;;;;;;;34.35;24.40;;;;;;;-0.34;100.00;100976.19;5141404;29;20050;-72
2022/12/16 02:27:23;;;;;;;37.58;26.35;;;;;;;-0.30;100.00;100977.78;5144685;29;20055;-72
2022/12/16 02:30:07;;;;;;;37.30;25.98;;;;;;;-0.32;100.00;100975.25;5141972;29;20116;-72
2022/12/16 02:32:51;;;;;;;34.03;25.42;;;;;;;-0.26;100.00;100982.75;5145784;29;20042;-74
2022/12/16 02:35:31;;;;;;;33.92;25.27;;;;;;;-0.31;100.00;100982.06;5144284;28;20039;-73
2022/12/16 02:38:26;;;;;;;33.65;25.13;;;;;;;-0.26;100.00;100977.59;5140327;29;20058;-71
2022/12/16 02:41:04;;;;;;;35.38;26.88;;;;;;;-0.34;100.00;100986.47;5143717;29;20512;-71
2022/12/16 02:43:47;;;;;;;36.38;26.15;;;;;;;-0.27;100.00;100988.75;5146327;29;20110;-71
2022/12/16 02:46:23;;;;;;;38.22;27.42;;;;;;;-0.35;100.00;100990.78;5141619;29;20402;-71
2022/12/16 02:48:55;;;;;;;36.28;26.20;;;;;;;-0.41;100.00;100985.06;5142587;29;20019;-71
2022/12/16 02:51:26;;;;;;;37.40;27.20;;;;;;;-0.39;100.00;100980.66;5143293;29;20098;-71
2022/12/16 02:53:57;;;;;;;36.33;27.10;;;;;;;-0.35;100.00;100993.38;5146017;29;20114;-71
2022/12/16 02:56:53;;;;;;;38.40;28.05;;;;;;;-0.25;100.00;100991.31;5138400;29;20028;-71
2022/12/16 02:59:48;;;;;;;37.10;27.40;;;;;;;-0.21;100.00;100994.59;5142733;29;20020;-71
2022/12/16 03:02:27;;;;;;;37.50;28.27;;;;;;;-0.27;100.00;100991.34;5139436;29;20031;-71
2022/12/16 03:05:20;;;;;;;37.13;28.73;;;;;;;-0.18;100.00;100985.03;5149989;28;20740;-71
2022/12/16 03:07:54;;;;;;;40.42;27.55;;;;;;;-0.31;100.00;100989.78;5141582;29;20393;-71
2022/12/16 03:10:31;;;;;;;38.25;28.00;;;;;;;-0.29;100.00;100992.31;5141544;29;20055;-71
2022/12/16 03:13:04;;;;;;;37.42;27.60;;;;;;;-0.33;100.00;100998.47;5148327;29;20963;-71
2022/12/16 03:15:37;;;;;;;;;;;;;;;0.11;100.00;100995.94;5138452;29;20023;-71
2022/12/16 03:18:12;;;;;;;40.67;26.35;;;;;;;-0.31;100.00;100994.94;5144771;29;20392;-71
2022/12/16 03:20:50;;;;;;;39.00;27.95;;;;;;;-0.26;100.00;101002.50;5131589;29;20090;-71
2022/12/16 03:23:33;;;;;;;38.55;29.35;;;;;;;-0.23;100.00;100999.78;5137770;29;20115;-71
2022/12/16 03:26:15;;;;;;;39.70;28.47;;;;;;;-0.19;100.00;101014.25;5141520;29;20032;-71
2022/12/16 03:28:52;;;;;;;39.30;28.65;;;;;;;-0.20;100.00;101006.56;5142930;29;20027;-71
2022/12/16 03:31:36;;;;;;;40.60;29.67;;;;;;;-0.15;100.00;101012.38;5141564;29;20024;-71
2022/12/16 03:34:24;;;;;;;43.75;29.40;;;;;;;-0.11;100.00;101008.81;5139275;29;20043;-71
2022/12/16 03:37:01;;;;;;;38.85;29.67;;;;;;;-0.29;100.00;101000.03;5123981;29;20489;-71
2022/12/16 03:39:37;;;;;;;37.85;29.55;;;;;;;-0.29;100.00;101007.75;5146346;28;20052;-72
2022/12/16 03:42:09;;;;;;;43.05;30.48;;;;;;;-0.29;100.00;101008.59;5141712;29;20027;-71
2022/12/16 03:44:43;;;;;;;41.75;30.70;;;;;;;-0.26;100.00;101017.94;5143901;28;20038;-71
2022/12/16 03:47:14;;;;;;;45.13;31.70;;;;;;;-0.27;100.00;101022.22;5138960;29;20081;-71
2022/12/16 03:49:45;;;;;;;44.40;31.30;;;;;;;-0.28;100.00;101025.72;5123901;29;20039;-71
2022/12/16 03:52:16;;;;;;;43.78;30.02;;;;;;;-0.28;100.00;101025.72;5140871;29;20199;-71
2022/12/16 03:54:48;;;;;;;43.38;31.23;;;;;;;-0.25;100.00;101025.59;5139036;29;20056;-71
2022/12/16 03:57:19;;;;;;;48.60;32.75;;;;;;;-0.25;100.00;101023.03;5141475;29;20393;-70
2022/12/16 03:59:50;;;;;;;53.42;32.15;;;;;;;-0.21;100.00;101028.06;5143288;28;20074;-70
2022/12/16 04:02:22;;;;;;;50.50;33.13;;;;;;;-0.20;100.00;101029.75;5136269;29;20122;-70
2022/12/16 04:04:53;;;;;;;46.30;31.90;;;;;;;-0.17;100.00;101037.34;5143978;29;20124;-70
2022/12/16 04:07:24;;;;;;;49.85;31.92;;;;;;;-0.17;100.00;101035.63;5141038;29;20019;-71
2022/12/16 04:09:56;;;;;;;46.22;31.90;;;;;;;-0.15;100.00;101040.69;5138792;29;20047;-71
2022/12/16 04:30:17;;;;;;;41.45;29.90;;;;;;;-0.02;100.00;101072.84;5139102;29;20059;-71
2022/12/16 04:34:24;;;;;;;44.35;31.58;;;;;;;-0.03;100.00;101066.03;5140936;29;20062;-71
